Silly, Belgium
Current Conditions -  °F | °C
As of 9:05 PM on Sunday 23 Nov 2014 (Local Time) from EBCV Reporting Station
Overcast Overcast  
Wind Chill: 55°   Ceiling: 1500
Heat Index: 55°   Visibility: 6mi
Dew Point: 52°   Wind: 7mph
Humidity: 88%   Direction: 250°WSW
Pressure: 29.97"   Gusts: NA
Location:  50.65°N, 3.92°E
Report Text: EBCV 232005Z AUTO 25006KT 9999 SCT011/// BKN015/// OVC018/// 13/11 Q1015 GRN
Loading
Personal Weather Stations






























Interactive Weather Map New forecast layout! Learn more

10-Day Weather Forecast

Advertisements
Track Severe Weather on mobile